Location Isle ofWight, ISLE OF WIGHT, UK

ob UISISLE1 281730Z AUTO 30003G04KT CLR 12/07 A3002 RMK SLPNO 

2017.04.28 1730 UTC
Wind from the WNW (295 degrees) at 3.9 MPH (3 KT) gusting to 5.1 MPH (4 KT)
Visibility    Mile(s)
Sky Conditions  clear
Temperature 53.7 F (12 C)
Dew Point 45.2 F (7 C)
Relative Humidity 73%
Pressure   30.028 in. Hg (1017 hPa)
Rain  0.00 in.
Daily Rain 0.000 in.

Station Name  Isle of Wight Weather
Longitude, Latitude  -1.271, 50.72
Elevation 45
Station URL http://www.isleofwightweather.co.uk
Software Type WeatherDisplay:10.37R